METAR stanice u blizini

 

LYBE - Beograd / Surčin, Srbija
Ažurirano: 19/10/2019 07:30
Shallow fog, Mist, Delimično oblačno
Shallow fog, Mist, Delimično oblačno
 Pravac vetra SZ
Vetar: SZ 4 km/h
Temperatura: 11°C
Tačka rose: 10°C
Vlažnost: 94%
Pritisak: 1018 hPa
Pregled: Shallow fog, Mist
Oblaci: Partly Cloudy
Vidljivost: 3 km
2019/10/19 05:30 LYBE 190530Z 32002KT 3000 MIFG BR NSC 11/10 Q1018 BECMG 6000 NSW
LYBT - Beograd / Batajnica, Srbija
Ažurirano: 19/10/2019 07:30
Mist, Delimično oblačno
Mist, Delimično oblačno
 Pravac vetra varies
Vetar: varies 2 km/h
Temperatura: 9°C
Tačka rose: 9°C
Vlažnost: 100%
Pritisak: 1017 hPa
Pregled: Mist
Oblaci: Partly Cloudy
Vidljivost: 2 km
2019/10/19 05:30 LYBT 190530Z VRB01KT 1500 BR NSC 09/09 Q1017 TEMPO 0800 FG
LYVR - Vršac, Srbija
Ažurirano: 19/10/2019 07:30
Mist, Delimično oblačno
Mist, Delimično oblačno
 Pravac vetra varies
Vetar: varies 4 km/h
Temperatura: 9°C
Tačka rose: 7°C
Vlažnost: 87%
Pritisak: 1017 hPa
Pregled: Mist
Oblaci: Partly Cloudy
Vidljivost: 4 km
2019/10/19 05:30 LYVR 190530Z VRB02KT 4000 BR NSC 09/07 Q1017 TEMPO 3000
 
LYKV - Lađevci, Srbija
Ažurirano: 19/10/2019 07:30
Magla, Delimično oblačno
Magla, Delimično oblačno
 Pravac vetra varies
Vetar: varies 2 km/h
Temperatura: 7°C
Tačka rose: 7°C
Vlažnost: 100%
Pritisak: 1019 hPa
Pregled: Magla
Oblaci: Partly Cloudy
Vidljivost: 1 km
2019/10/19 05:30 LYKV 190530Z VRB01KT 0600 FG NSC 07/07 Q1019 NOSIG
LYNI - Niš, Srbija
Ažurirano: 19/10/2019 07:30
Vedro
Vedro
 Pravac vetra varies
Vetar: varies 2 km/h
Temperatura: 9°C
Tačka rose: 8°C
Vlažnost: 94%
Pritisak: 1019 hPa
Pregled: Vedro
Vidljivost: greater than 10 km
2019/10/19 05:30 LYNI 190530Z VRB01KT CAVOK 09/08 Q1019 NOSIG
BKPR - Priština, Srbija
Ažurirano: 19/10/2019 08:00
Mist, Delimično oblačno
Mist, Delimično oblačno
 Pravac vetra varies
Vetar: varies 2 km/h
Temperatura: 9°C
Tačka rose: 6°C
Vlažnost: 82%
Pritisak: 1020 hPa
Pregled: Mist
Oblaci: Partly Cloudy
Vidljivost: 5 km
2019/10/19 06:00 BKPR 190600Z VRB01KT 5000 BR NSC 09/06 Q1020 BECMG 7000
 
LHPP - Pecs / Pogany, Hungary
Ažurirano: 19/10/2019 07:15
Vedro
Vedro
 Pravac vetra JZ
Vetar: JZ 7 km/h
Temperatura: 12°C
Tačka rose: 9°C
Vlažnost: 82%
Pritisak: 1016 hPa
Pregled: Vedro
Vidljivost: greater than 10 km
2019/10/19 05:15 LHPP 190515Z 22004KT CAVOK 12/09 Q1016
LHUD - Szeged, Hungary
Ažurirano: 04/07/2019 01:45
NOT Current
Vedro
Vedro
 Pravac vetra S
Vetar: S 7 km/h
Temperatura: 18°C
Tačka rose: 13°C
Vlažnost: 73%
Pritisak: 1019 hPa
Pregled: Vedro
Vidljivost: greater than 10 km
2019/07/03 23:45 LHUD 032345Z 35004KT CAVOK 18/13 Q1019
LRTR - Timisoara, Romania
Ažurirano: 19/10/2019 07:30
Haze, Delimično oblačno
Haze, Delimično oblačno
 Pravac vetra I
Vetar: I 9 km/h
Temperatura: 10°C
Osećaj hladnoće: 9°C
Tačka rose: 9°C
Vlažnost: 94%
Pritisak: 1018 hPa
Pregled: Haze
Oblaci: Partly Cloudy
Vidljivost: 3 km
2019/10/19 05:30 LRTR 190530Z 09005KT 3300 HZ NSC 10/09 Q1018
 
LRCV - Craiova, Romania
Ažurirano: 19/10/2019 07:30
Partly Cloudy
Partly Cloudy
 Pravac vetra ISI
Vetar: ISI 7 km/h
Temperatura: 10°C
Osećaj hladnoće: 9°C
Tačka rose: 8°C
Vlažnost: 88%
Pritisak: 1019 hPa
Oblaci: Partly Cloudy
Vidljivost: 8 km
2019/10/19 05:30 LRCV 190530Z 06004KT 8000 NSC 10/08 Q1019
LBSF - Sofia, Bulgaria
Ažurirano: 19/10/2019 07:30
Partly Cloudy
Partly Cloudy
 Pravac vetra JI
Vetar: JI 4 km/h
Temperatura: 7°C
Tačka rose: 6°C
Vlažnost: 93%
Pritisak: 1020 hPa
Oblaci: Partly Cloudy
Vidljivost: 7 km
2019/10/19 05:30 LBSF 190530Z 14002KT 7000 NSC 07/06 Q1020 TEMPO 5000 BR
LWSK - Skoplje, Makedonija
Ažurirano: 19/10/2019 08:00
Vedro
Vedro
 Pravac vetra calm
Vetar: Tišina
Temperatura: 11°C
Tačka rose: 9°C
Vlažnost: 88%
Pritisak: 1020 hPa
Pregled: Vedro
Vidljivost: greater than 10 km
2019/10/19 06:00 LWSK 190600Z 00000KT CAVOK 11/09 Q1020 NOSIG
 
LYPG - Podgorica, Crna Gora
Ažurirano: 19/10/2019 07:30
Vedro
Vedro
 Pravac vetra calm
Vetar: Tišina
Temperatura: 13°C
Tačka rose: 11°C
Vlažnost: 88%
Pritisak: 1019 hPa
Pregled: Vedro
Vidljivost: greater than 10 km
2019/10/19 05:30 LYPG 190530Z 00000KT CAVOK 13/11 Q1019 NOSIG
LQSA - Sarajevo, Bosna i Hercegovina
Ažurirano: 19/10/2019 07:30
Few Clouds
Few Clouds
 Pravac vetra varies
Vetar: varies 4 km/h
Temperatura: 5°C
Tačka rose: 5°C
Vlažnost: 100%
Pritisak: 1019 hPa
Oblaci: Few Clouds
Vidljivost: 6 km
Cloud details: Few Clouds 91 m
2019/10/19 05:30 LQSA 190530Z VRB02KT 6000 FEW003 05/05 Q1019 NOSIG
LDOS - Osijek, Hrvatksa
Ažurirano: 19/10/2019 07:30
Vedro
Vedro
 Pravac vetra J
Vetar: J 7 km/h
Temperatura: 7°C
Osećaj hladnoće: 6°C
Tačka rose: 7°C
Vlažnost: 100%
Pritisak: 1017 hPa
Pregled: Vedro
Vidljivost: greater than 10 km
2019/10/19 05:30 LDOS 190530Z 17004KT CAVOK 07/07 Q1017